Hlavní strana
METAR-TAF:

METAR-TAF

Letiště :

Narsarsuaq, Grónsko

zeměpisná šířka: 61-10N, zeměpisná délka: 045-25W, výška: 34 m

Aktuální stav počasí

Zpráva byla vytvořena před 1 hodinou a 3 minutami, v 17:50 UTC
Jihojihozápadní vítr 10 kt
Teplota 2°C
Vlhkost vzduchu 60%
Tlak 1002 hPa
Viditelnost 10 km a více
Skoro jasno ve výšce 3000 ft
Oblačno až skoro zataženo ve výšce 5300 ft
slabé sněžení

METAR: BGBW 231750Z 21010KT 9999 -SN FEW030 BKN053 02/M05 Q1002

Čas: 16:53 (18:53 UTC)

Předpověď počasí

Zpráva byla vytvořena před 1 hodinou a 39 minutami, v 17:14 UTC
Předpověď platná od 23 v 18 UTC do 24 v 01 UTC
Jihojihozápadní vítr 8 kt
Viditelnost 10 km a více
Polojasno ve výšce 1500 ft
Oblačno až skoro zataženo ve výšce 4000 ft
slabé sněžení
Dočasný
od 23 v 18 UTC do 24 v 01 UTC
Viditelnost: 1000 m
Oblačno až skoro zataženo ve výšce 800 ft
sněhové přeháňky

TAF: BGBW 231714Z 2318/2401 20008KT 9999 -SN SCT015 BKN040 TEMPO 2318/2401 1000 SHSN BKN008

Stav a předpovědi počasí z více než 4 000 letišť (zprávy METAR a TAF).

Červené a žluté tečky na mapě představují dostupné meteorologické stanice.

Když kurzor umístíte na tečku, zobrazí se název stanice.

Pak kliknutím zobrazíte stav a předpověď počasí.

Chcete-li změnit mapu, kliknutím na zelené tlačítko se znaménkem +mapu přiblížíte, kliknutím na zelené tlačítko se znaménkem – mapu oddálíte a kliknutím na zelené šipky přejdete na sousední mapy.


METAR-TAF: